createdAt,value
2023-02-17T00:01:19.881Z,47.92
2023-02-17T00:06:18.445Z,51.88
2023-02-17T00:11:14.942Z,51.88
2023-02-17T00:16:18.799Z,57.33
2023-02-17T00:21:19.648Z,56.25
2023-02-17T00:26:17.466Z,51.78
2023-02-17T00:31:19.816Z,63.42
2023-02-17T00:36:19.411Z,57.63
2023-02-17T00:41:17.676Z,67.03
2023-02-17T00:46:15.212Z,56.95
2023-02-17T00:51:12.224Z,56.92
2023-02-17T00:56:09.197Z,54.10
2023-02-17T01:01:05.625Z,61.47
2023-02-17T01:06:07.548Z,63.58
2023-02-17T01:11:04.162Z,61.60
2023-02-17T01:16:00.606Z,66.72
2023-02-17T01:20:57.097Z,61.03
2023-02-17T01:25:53.585Z,68.38
2023-02-17T01:30:50.164Z,72.65
2023-02-17T01:35:46.600Z,88.45
2023-02-17T01:40:47.506Z,68.07
2023-02-17T01:45:58.456Z,65.88
2023-02-17T01:51:03.178Z,66.72
2023-02-17T01:55:59.605Z,70.32
2023-02-17T02:00:59.998Z,66.70
2023-02-17T02:05:56.918Z,64.43
2023-02-17T02:10:53.338Z,73.68
2023-02-17T02:16:02.245Z,68.55
2023-02-17T02:21:10.712Z,63.40
2023-02-17T02:26:38.528Z,58.38
2023-02-17T02:32:06.525Z,65.07
2023-02-17T02:37:02.827Z,68.32
2023-02-17T02:42:04.582Z,56.20
2023-02-17T02:47:04.085Z,52.70
2023-02-17T02:52:20.502Z,56.03
2023-02-17T02:57:22.435Z,53.33
2023-02-17T03:02:30.286Z,54.22
2023-02-17T03:07:33.664Z,45.65
2023-02-17T03:12:30.312Z,42.33
2023-02-17T03:17:26.838Z,40.47
2023-02-17T03:22:34.127Z,35.33
2023-02-17T03:27:30.565Z,33.70
2023-02-17T03:32:27.114Z,37.08
2023-02-17T03:37:23.741Z,37.42
2023-02-17T03:42:20.328Z,41.17
2023-02-17T03:47:16.714Z,37.78
2023-02-17T03:52:13.449Z,41.17
2023-02-17T03:57:09.818Z,33.05
2023-02-17T04:02:06.382Z,35.45
2023-02-17T04:07:03.108Z,36.22
2023-02-17T04:11:59.493Z,34.38
2023-02-17T04:16:55.982Z,36.95
2023-02-17T04:21:52.418Z,35.70
2023-02-17T04:26:48.844Z,37.45
2023-02-17T04:31:45.317Z,37.83
2023-02-17T04:36:44.019Z,37.65
2023-02-17T04:41:40.652Z,36.17
2023-02-17T04:46:37.087Z,39.55
2023-02-17T04:51:33.500Z,43.92
2023-02-17T04:56:29.987Z,41.92
2023-02-17T05:01:26.567Z,38.22
2023-02-17T05:06:23.013Z,37.60
2023-02-17T05:11:19.458Z,37.78
2023-02-17T05:16:15.973Z,37.22
2023-02-17T05:21:12.370Z,36.03
2023-02-17T05:26:09.318Z,40.85
2023-02-17T05:31:06.414Z,41.47
2023-02-17T05:36:05.885Z,37.53
2023-02-17T05:41:02.485Z,46.28
2023-02-17T05:46:03.569Z,49.58
2023-02-17T05:51:00.366Z,52.13
2023-02-17T05:55:56.745Z,49.47
2023-02-17T06:00:53.122Z,47.40
2023-02-17T06:05:49.665Z,47.65
2023-02-17T06:10:46.165Z,50.70
2023-02-17T06:15:42.622Z,47.88
2023-02-17T06:20:39.093Z,47.10
2023-02-17T06:25:35.613Z,44.67
2023-02-17T06:30:32.267Z,53.85
2023-02-17T06:35:28.757Z,45.78
2023-02-17T06:40:26.995Z,47.78
2023-02-17T06:45:24.463Z,47.75
2023-02-17T06:50:21.806Z,45.05
2023-02-17T06:55:18.352Z,46.40
2023-02-17T07:00:15.053Z,47.00
2023-02-17T07:05:11.577Z,47.35
2023-02-17T07:10:08.513Z,50.97
2023-02-17T07:15:05.532Z,48.88
2023-02-17T07:20:01.962Z,52.08
2023-02-17T07:24:58.341Z,48.00
2023-02-17T07:29:55.418Z,53.05
2023-02-17T07:34:51.904Z,48.78
2023-02-17T07:39:48.687Z,54.15
2023-02-17T07:44:45.069Z,64.25
2023-02-17T07:49:41.595Z,52.58
2023-02-17T07:54:38.245Z,45.60
2023-02-17T07:59:34.678Z,49.53
2023-02-17T08:04:32.674Z,50.40
2023-02-17T08:09:47.937Z,44.28
2023-02-17T08:14:44.344Z,45.33
2023-02-17T08:19:48.533Z,44.05
2023-02-17T08:24:45.914Z,44.40
2023-02-17T08:29:43.199Z,36.55
2023-02-17T08:34:39.622Z,40.33
2023-02-17T08:39:36.774Z,41.85
2023-02-17T08:44:35.890Z,39.13
2023-02-17T08:49:32.840Z,40.90
2023-02-17T08:54:29.402Z,38.00
2023-02-17T08:59:25.833Z,39.55
2023-02-17T09:04:22.448Z,35.55
2023-02-17T09:09:22.733Z,37.33
2023-02-17T09:14:19.288Z,36.42
2023-02-17T09:19:15.782Z,37.58
2023-02-17T09:24:12.320Z,34.75
2023-02-17T09:29:09.120Z,35.55
2023-02-17T09:34:05.673Z,32.42
2023-02-17T09:39:02.113Z,33.67
2023-02-17T09:43:59.023Z,34.38
2023-02-17T09:49:08.789Z,30.85
2023-02-17T09:54:18.556Z,34.25
2023-02-17T09:59:34.246Z,32.33
2023-02-17T10:04:37.345Z,27.05
2023-02-17T10:09:50.914Z,29.17
2023-02-17T10:14:58.899Z,29.73
2023-02-17T10:20:00.163Z,29.75
2023-02-17T10:24:57.597Z,27.25
2023-02-17T10:30:12.725Z,35.33
2023-02-17T10:35:19.439Z,34.85
2023-02-17T10:40:16.015Z,36.60
2023-02-17T10:45:30.790Z,36.42
2023-02-17T10:50:27.643Z,39.97
2023-02-17T10:55:37.600Z,41.08
2023-02-17T11:00:34.087Z,32.88
2023-02-17T11:05:33.875Z,33.90
2023-02-17T11:10:34.652Z,35.63
2023-02-17T11:15:46.382Z,31.77
2023-02-17T11:20:42.840Z,37.72
2023-02-17T11:25:39.460Z,31.73
2023-02-17T11:30:36.442Z,30.95
2023-02-17T11:35:35.882Z,28.70
2023-02-17T11:40:33.198Z,28.10
2023-02-17T11:45:35.595Z,35.75
2023-02-17T11:50:41.893Z,35.42
2023-02-17T11:56:10.454Z,34.13
2023-02-17T12:01:34.288Z,31.63
2023-02-17T12:07:08.214Z,28.00
2023-02-17T12:12:12.577Z,29.45
2023-02-17T12:17:37.209Z,34.15
2023-02-17T12:22:59.540Z,31.20
2023-02-17T12:28:21.445Z,39.22
2023-02-17T12:33:32.850Z,33.58
2023-02-17T12:38:36.896Z,29.30
2023-02-17T12:43:57.819Z,30.83
2023-02-17T12:49:02.940Z,25.90
2023-02-17T12:54:03.458Z,24.23
2023-02-17T12:59:10.989Z,25.42
2023-02-17T13:04:07.366Z,20.10
2023-02-17T13:09:24.865Z,21.05
2023-02-17T13:14:38.102Z,18.25
2023-02-17T13:19:35.292Z,14.65
2023-02-17T13:24:36.123Z,15.68
2023-02-17T13:29:35.532Z,14.43
2023-02-17T13:34:33.817Z,17.55
2023-02-17T13:39:33.506Z,16.40
2023-02-17T13:44:31.310Z,17.77
2023-02-17T13:49:32.735Z,21.58
2023-02-17T13:54:29.102Z,18.10
2023-02-17T13:59:27.119Z,23.75
2023-02-17T14:04:27.417Z,18.50
2023-02-17T14:09:27.381Z,19.20
2023-02-17T14:14:29.488Z,20.00
2023-02-17T14:19:25.866Z,17.85
2023-02-17T14:24:37.749Z,12.85
2023-02-17T14:29:48.069Z,13.73
2023-02-17T14:34:44.450Z,17.95
2023-02-17T14:39:40.895Z,9.13
2023-02-17T14:44:37.347Z,10.52
2023-02-17T14:49:33.913Z,15.07
2023-02-17T14:54:30.580Z,17.55
2023-02-17T14:59:27.024Z,20.73
2023-02-17T15:04:23.460Z,13.18
2023-02-17T15:09:27.840Z,19.70
2023-02-17T15:14:24.637Z,17.02
2023-02-17T15:19:21.446Z,12.18
2023-02-17T15:24:22.812Z,15.40
2023-02-17T15:29:24.448Z,14.52
2023-02-17T15:34:30.835Z,22.87
2023-02-17T15:39:27.630Z,17.45
2023-02-17T15:44:28.133Z,31.90
2023-02-17T15:49:24.577Z,32.25
2023-02-17T15:54:21.139Z,23.65
2023-02-17T15:59:26.599Z,24.90
2023-02-17T16:04:23.063Z,24.75
2023-02-17T16:09:21.636Z,26.15
2023-02-17T16:14:28.514Z,24.52
2023-02-17T16:19:24.958Z,35.47
2023-02-17T16:24:21.455Z,21.98
2023-02-17T16:29:20.770Z,17.75
2023-02-17T16:34:20.900Z,22.23
2023-02-17T16:39:22.370Z,24.90
2023-02-17T16:44:22.123Z,22.52
2023-02-17T16:49:33.648Z,28.88
2023-02-17T16:54:30.511Z,19.45
2023-02-17T16:59:27.137Z,25.63
2023-02-17T17:04:24.455Z,21.63
2023-02-17T17:09:24.086Z,24.52
2023-02-17T17:14:21.792Z,25.23
2023-02-17T17:19:18.694Z,19.60
2023-02-17T17:24:15.852Z,30.30
2023-02-17T17:29:14.473Z,30.95
2023-02-17T17:34:11.045Z,26.98
2023-02-17T17:39:13.239Z,21.65
2023-02-17T17:44:10.552Z,29.40
2023-02-17T17:49:10.231Z,32.25
2023-02-17T17:54:07.313Z,33.72
2023-02-17T17:59:04.892Z,24.48
2023-02-17T18:04:01.782Z,22.83
2023-02-17T18:09:02.356Z,17.80
2023-02-17T18:14:03.138Z,21.02
2023-02-17T18:19:02.446Z,20.67
2023-02-17T18:23:58.889Z,20.25
2023-02-17T18:28:56.633Z,31.77
2023-02-17T18:33:54.514Z,24.17
2023-02-17T18:38:51.173Z,24.98
2023-02-17T18:43:48.271Z,22.27
2023-02-17T18:48:45.213Z,20.48
2023-02-17T18:53:42.008Z,17.05
2023-02-17T18:58:38.861Z,45.55
2023-02-17T19:03:35.270Z,22.00
2023-02-17T19:08:31.654Z,30.70
2023-02-17T19:13:28.283Z,30.23
2023-02-17T19:18:24.696Z,29.58
2023-02-17T19:23:22.186Z,33.85
2023-02-17T19:28:18.646Z,24.50
2023-02-17T19:33:15.246Z,25.23
2023-02-17T19:38:11.637Z,29.23
2023-02-17T19:43:08.005Z,38.08
2023-02-17T19:48:05.662Z,32.50
2023-02-17T19:53:02.103Z,24.75
2023-02-17T19:57:58.552Z,24.67
2023-02-17T20:02:55.080Z,31.20
2023-02-17T20:07:51.567Z,31.05
2023-02-17T20:12:47.958Z,22.80
2023-02-17T20:17:44.809Z,25.67
2023-02-17T20:22:41.291Z,24.40
2023-02-17T20:27:37.755Z,22.50
2023-02-17T20:32:34.185Z,22.85
2023-02-17T20:37:30.656Z,25.92
2023-02-17T20:42:27.096Z,24.50
2023-02-17T20:47:23.476Z,26.80
2023-02-17T20:52:19.900Z,14.40
2023-02-17T20:57:16.349Z,26.65
2023-02-17T21:02:12.843Z,21.58
2023-02-17T21:07:10.764Z,22.13
2023-02-17T21:12:07.768Z,27.83
2023-02-17T21:17:04.570Z,20.23
2023-02-17T21:22:01.026Z,29.23
2023-02-17T21:26:57.500Z,31.58
2023-02-17T21:31:54.377Z,25.13
2023-02-17T21:36:50.842Z,23.52
2023-02-17T21:41:47.394Z,22.13
2023-02-17T21:46:45.070Z,29.15
2023-02-17T21:51:41.769Z,28.95
2023-02-17T21:56:38.640Z,25.33
2023-02-17T22:01:35.434Z,25.27
2023-02-17T22:06:36.141Z,26.17
2023-02-17T22:11:34.716Z,28.83
2023-02-17T22:16:33.688Z,27.20
2023-02-17T22:21:30.251Z,34.80
2023-02-17T22:26:27.770Z,31.63
2023-02-17T22:31:26.457Z,24.95
2023-02-17T22:36:24.424Z,24.02
2023-02-17T22:41:23.411Z,20.45
2023-02-17T22:46:22.746Z,23.25
2023-02-17T22:51:22.332Z,28.25
2023-02-17T22:56:19.893Z,26.38
2023-02-17T23:01:20.458Z,26.20
2023-02-17T23:06:20.047Z,17.90
2023-02-17T23:11:40.082Z,19.38
2023-02-17T23:16:37.740Z,23.50
2023-02-17T23:21:34.336Z,21.58
2023-02-17T23:26:30.807Z,27.60
2023-02-17T23:31:27.431Z,32.05
2023-02-17T23:36:24.002Z,28.55
2023-02-17T23:41:20.454Z,25.58
2023-02-17T23:46:17.337Z,28.13
2023-02-17T23:51:18.327Z,27.38
2023-02-17T23:56:17.608Z,32.00
